PWSweather.com
Personal Weather Stations
Station Observations
THAIWX
Pa Daet, Chiang MaiTH 50100

Pa DaetChiang MaiTH 50100

Lat: 18.766158, Lon: 98.97553

Elevation: 1007

Station Type: LaCrosse WS2315 (modified)

http://www.ThaiWx.yolasite.com/

High Low Average
Temperature 90.1°F32.3°C 81.3°F27.4°C 86.6°F30.3°C
Dew Point 73.7°F23.2°C 70.9°F21.6°C 72.2°F22.3°C
Winds 7.2 mph 11.6 kmh Calm Calm 2.0 mph S3.2 kmh S
Wind Gusts 9.8 mph15.8 kmh -- 4.0 mph6.4 kmh
Humidity 76% 55% 63%
Pressure 29.87 in1011.5 mb 29.74 in1007.1 mb -
Precipitation 0.00 in0.0 mm - -
Hour Temp Dew Point Humidity Winds Wind Gusts Pressure Precip Precip Rate Daily Precip Total
12:00 AM 82.8°F28.2°C 71.1°F21.7°C 68% Calm Calm -- 29.83 in1010.2 mb 0.00 in0.0 mm 0.00 in0.0 mm 0.00 in0.0 mm
12:05 AM 82.9°F28.3°C 70.8°F21.6°C 67% Calm Calm -- 29.83 in1010.2 mb 0.00 in0.0 mm 0.00 in0.0 mm 0.00 in0.0 mm
12:10 AM 82.8°F28.2°C 71.1°F21.7°C 68% Calm Calm -- 29.83 in1010.2 mb 0.00 in0.0 mm 0.00 in0.0 mm 0.00 in0.0 mm
12:15 AM 82.4°F28.0°C 70.7°F21.5°C 68% Calm Calm -- 29.83 in1010.2 mb 0.00 in0.0 mm 0.00 in0.0 mm 0.00 in0.0 mm
12:20 AM 82.6°F28.1°C 70.4°F21.3°C 67% Calm Calm -- 29.83 in1010.2 mb 0.00 in0.0 mm 0.00 in0.0 mm 0.00 in0.0 mm
12:25 AM 82.4°F28.0°C 70.7°F21.5°C 68% 1.4 mph SW2.3 kmh SW 1.6 mph2.6 kmh 29.83 in1010.2 mb 0.00 in0.0 mm 0.00 in0.0 mm 0.00 in0.0 mm
12:30 AM 82.6°F28.1°C 70.4°F21.3°C 67% Calm Calm 1.6 mph2.6 kmh 29.83 in1010.2 mb 0.00 in0.0 mm 0.00 in0.0 mm 0.00 in0.0 mm
12:35 AM 82.8°F28.2°C 71.1°F21.7°C 68% Calm Calm -- 29.83 in1010.2 mb 0.00 in0.0 mm 0.00 in0.0 mm 0.00 in0.0 mm
12:40 AM 82.6°F28.1°C 70.4°F21.3°C 67% Calm Calm -- 29.83 in1010.2 mb 0.00 in0.0 mm 0.00 in0.0 mm 0.00 in0.0 mm
12:45 AM 82.6°F28.1°C 70.9°F21.6°C 68% Calm Calm -- 29.83 in1010.2 mb 0.00 in0.0 mm 0.00 in0.0 mm 0.00 in0.0 mm
12:50 AM 82.6°F28.1°C 70.9°F21.6°C 68% Calm Calm -- 29.83 in1010.2 mb 0.00 in0.0 mm 0.00 in0.0 mm 0.00 in0.0 mm
12:55 AM 82.6°F28.1°C 70.9°F21.6°C 68% Calm Calm -- 29.82 in1009.8 mb 0.00 in0.0 mm 0.00 in0.0 mm 0.00 in0.0 mm
01:00 AM 82.6°F28.1°C 70.9°F21.6°C 68% Calm Calm -- 29.82 in1009.8 mb 0.00 in0.0 mm 0.00 in0.0 mm 0.00 in0.0 mm
01:05 AM 82.6°F28.1°C 70.9°F21.6°C 68% Calm Calm -- 29.82 in1009.8 mb 0.00 in0.0 mm 0.00 in0.0 mm 0.00 in0.0 mm
01:10 AM 82.2°F27.9°C 70.5°F21.4°C 68% Calm Calm -- 29.82 in1009.8 mb 0.00 in0.0 mm 0.00 in0.0 mm 0.00 in0.0 mm
01:15 AM 82.2°F27.9°C 70.5°F21.4°C 68% Calm Calm -- 29.81 in1009.5 mb 0.00 in0.0 mm 0.00 in0.0 mm 0.00 in0.0 mm
01:21 AM 82.2°F27.9°C 71.0°F21.7°C 69% Calm Calm -- 29.81 in1009.5 mb 0.00 in0.0 mm 0.00 in0.0 mm 0.00 in0.0 mm
01:26 AM 82.2°F27.9°C 71.0°F21.7°C 69% Calm Calm -- 29.81 in1009.5 mb 0.00 in0.0 mm 0.00 in0.0 mm 0.00 in0.0 mm
01:30 AM 82.4°F28.0°C 70.7°F21.5°C 68% Calm Calm -- 29.81 in1009.5 mb 0.00 in0.0 mm 0.00 in0.0 mm 0.00 in0.0 mm
01:36 AM 82.2°F27.9°C 71.0°F21.7°C 69% Calm Calm -- 29.81 in1009.5 mb 0.00 in0.0 mm 0.00 in0.0 mm 0.00 in0.0 mm
01:41 AM 82.2°F27.9°C 71.0°F21.7°C 69% Calm Calm -- 29.81 in1009.5 mb 0.00 in0.0 mm 0.00 in0.0 mm 0.00 in0.0 mm
01:46 AM 82.6°F28.1°C 71.3°F21.8°C 69% Calm Calm -- 29.81 in1009.5 mb 0.00 in0.0 mm 0.00 in0.0 mm 0.00 in0.0 mm
01:51 AM 82.6°F28.1°C 70.9°F21.6°C 68% Calm Calm -- 29.81 in1009.5 mb 0.00 in0.0 mm 0.00 in0.0 mm 0.00 in0.0 mm
01:56 AM 82.2°F27.9°C 71.0°F21.7°C 69% 1.6 mph WNW2.6 kmh WNW 1.6 mph2.6 kmh 29.81 in1009.5 mb 0.00 in0.0 mm 0.00 in0.0 mm 0.00 in0.0 mm
02:01 AM 82.2°F27.9°C 71.4°F21.9°C 70% Calm Calm 1.6 mph2.6 kmh 29.80 in1009.1 mb 0.00 in0.0 mm 0.00 in0.0 mm 0.00 in0.0 mm
02:06 AM 82.2°F27.9°C 71.4°F21.9°C 70% Calm Calm -- 29.80 in1009.1 mb 0.00 in0.0 mm 0.00 in0.0 mm 0.00 in0.0 mm
02:11 AM 82.6°F28.1°C 72.2°F22.3°C 71% Calm Calm 1.8 mph2.9 kmh 29.80 in1009.1 mb 0.00 in0.0 mm 0.00 in0.0 mm 0.00 in0.0 mm
02:16 AM 82.6°F28.1°C 72.6°F22.6°C 72% 1.9 mph NNE3.1 kmh NNE 2.9 mph4.7 kmh 29.80 in1009.1 mb 0.00 in0.0 mm 0.00 in0.0 mm 0.00 in0.0 mm
02:21 AM 82.2°F27.9°C 72.7°F22.6°C 73% Calm Calm 2.9 mph4.7 kmh 29.80 in1009.1 mb 0.00 in0.0 mm 0.00 in0.0 mm 0.00 in0.0 mm
02:26 AM 82.2°F27.9°C 72.7°F22.6°C 73% 1.6 mph NE2.6 kmh NE 1.8 mph2.9 kmh 29.80 in1009.1 mb 0.00 in0.0 mm 0.00 in0.0 mm 0.00 in0.0 mm
02:31 AM 82.2°F27.9°C 73.1°F22.8°C 74% 2.0 mph E3.2 kmh E 2.5 mph4.0 kmh 29.80 in1009.1 mb 0.00 in0.0 mm 0.00 in0.0 mm 0.00 in0.0 mm
02:36 AM 82.2°F27.9°C 73.1°F22.8°C 74% Calm Calm 2.5 mph4.0 kmh 29.80 in1009.1 mb 0.00 in0.0 mm 0.00 in0.0 mm 0.00 in0.0 mm
02:41 AM 82.0°F27.8°C 72.9°F22.7°C 74% 1.1 mph ENE1.8 kmh ENE 1.6 mph2.6 kmh 29.80 in1009.1 mb 0.00 in0.0 mm 0.00 in0.0 mm 0.00 in0.0 mm
02:46 AM 82.2°F27.9°C 73.1°F22.8°C 74% Calm Calm 2.9 mph4.7 kmh 29.80 in1009.1 mb 0.00 in0.0 mm 0.00 in0.0 mm 0.00 in0.0 mm
02:51 AM 82.2°F27.9°C 73.1°F22.8°C 74% 2.0 mph NE3.2 kmh NE 3.1 mph5.0 kmh 29.80 in1009.1 mb 0.00 in0.0 mm 0.00 in0.0 mm 0.00 in0.0 mm
02:56 AM 82.2°F27.9°C 73.1°F22.8°C 74% Calm Calm 3.1 mph5.0 kmh 29.80 in1009.1 mb 0.00 in0.0 mm 0.00 in0.0 mm 0.00 in0.0 mm
03:01 AM 82.0°F27.8°C 73.3°F22.9°C 75% Calm Calm -- 29.80 in1009.1 mb 0.00 in0.0 mm 0.00 in0.0 mm 0.00 in0.0 mm
03:06 AM 81.9°F27.7°C 73.1°F22.8°C 75% Calm Calm -- 29.80 in1009.1 mb 0.00 in0.0 mm 0.00 in0.0 mm 0.00 in0.0 mm
03:11 AM 82.0°F27.8°C 73.3°F22.9°C 75% Calm Calm -- 29.80 in1009.1 mb 0.00 in0.0 mm 0.00 in0.0 mm 0.00 in0.0 mm
03:16 AM 82.0°F27.8°C 73.7°F23.2°C 76% Calm Calm -- 29.80 in1009.1 mb 0.00 in0.0 mm 0.00 in0.0 mm 0.00 in0.0 mm
03:21 AM 82.0°F27.8°C 73.3°F22.9°C 75% Calm Calm -- 29.80 in1009.1 mb 0.00 in0.0 mm 0.00 in0.0 mm 0.00 in0.0 mm
03:26 AM 82.0°F27.8°C 73.7°F23.2°C 76% Calm Calm -- 29.80 in1009.1 mb 0.00 in0.0 mm 0.00 in0.0 mm 0.00 in0.0 mm
03:31 AM 82.0°F27.8°C 73.7°F23.2°C 76% Calm Calm -- 29.80 in1009.1 mb 0.00 in0.0 mm 0.00 in0.0 mm 0.00 in0.0 mm
03:36 AM 82.0°F27.8°C 73.7°F23.2°C 76% Calm Calm -- 29.80 in1009.1 mb 0.00 in0.0 mm 0.00 in0.0 mm 0.00 in0.0 mm
03:41 AM 82.0°F27.8°C 73.7°F23.2°C 76% 2.2 mph NNE3.5 kmh NNE 2.2 mph3.5 kmh 29.80 in1009.1 mb 0.00 in0.0 mm 0.00 in0.0 mm 0.00 in0.0 mm
03:46 AM 82.0°F27.8°C 73.7°F23.2°C 76% 1.5 mph NE2.4 kmh NE 3.1 mph5.0 kmh 29.80 in1009.1 mb 0.00 in0.0 mm 0.00 in0.0 mm 0.00 in0.0 mm
03:51 AM 82.0°F27.8°C 73.7°F23.2°C 76% Calm Calm 3.1 mph5.0 kmh 29.80 in1009.1 mb 0.00 in0.0 mm 0.00 in0.0 mm 0.00 in0.0 mm
03:57 AM 82.0°F27.8°C 73.7°F23.2°C 76% Calm Calm 2.0 mph3.2 kmh 29.81 in1009.5 mb 0.00 in0.0 mm 0.00 in0.0 mm 0.00 in0.0 mm
04:01 AM 82.0°F27.8°C 73.7°F23.2°C 76% Calm Calm 2.0 mph3.2 kmh 29.80 in1009.1 mb 0.00 in0.0 mm 0.00 in0.0 mm 0.00 in0.0 mm
04:07 AM 82.0°F27.8°C 74.1°F23.4°C 77% Calm Calm -- 29.80 in1009.1 mb 0.00 in0.0 mm 0.00 in0.0 mm 0.00 in0.0 mm
04:12 AM 82.0°F27.8°C 74.1°F23.4°C 77% Calm Calm -- 29.80 in1009.1 mb 0.00 in0.0 mm 0.00 in0.0 mm 0.00 in0.0 mm
04:17 AM 82.0°F27.8°C 74.1°F23.4°C 77% Calm Calm -- 29.80 in1009.1 mb 0.00 in0.0 mm 0.00 in0.0 mm 0.00 in0.0 mm
04:22 AM 82.0°F27.8°C 74.1°F23.4°C 77% Calm Calm -- 29.80 in1009.1 mb 0.00 in0.0 mm 0.00 in0.0 mm 0.00 in0.0 mm
04:27 AM 82.0°F27.8°C 74.6°F23.7°C 78% 2.5 mph NW4.0 kmh NW 3.8 mph6.1 kmh 29.80 in1009.1 mb 0.00 in0.0 mm 0.00 in0.0 mm 0.00 in0.0 mm
04:32 AM 82.0°F27.8°C 74.1°F23.4°C 77% Calm Calm 3.8 mph6.1 kmh 29.80 in1009.1 mb 0.00 in0.0 mm 0.00 in0.0 mm 0.00 in0.0 mm
04:37 AM 82.0°F27.8°C 74.1°F23.4°C 77% 2.5 mph NNW4.0 kmh NNW 3.8 mph6.1 kmh 29.80 in1009.1 mb 0.00 in0.0 mm 0.00 in0.0 mm 0.00 in0.0 mm
04:42 AM 81.9°F27.7°C 73.6°F23.1°C 76% Calm Calm 3.8 mph6.1 kmh 29.80 in1009.1 mb 0.00 in0.0 mm 0.00 in0.0 mm 0.00 in0.0 mm
04:47 AM 81.9°F27.7°C 73.6°F23.1°C 76% 1.6 mph 2.6 kmh 2.2 mph3.5 kmh 29.80 in1009.1 mb 0.00 in0.0 mm 0.00 in0.0 mm 0.00 in0.0 mm
04:52 AM 81.7°F27.6°C 73.4°F23.0°C 76% Calm Calm 2.2 mph3.5 kmh 29.80 in1009.1 mb 0.00 in0.0 mm 0.00 in0.0 mm 0.00 in0.0 mm
04:57 AM 81.7°F27.6°C 73.4°F23.0°C 76% Calm Calm 1.6 mph2.6 kmh 29.80 in1009.1 mb 0.00 in0.0 mm 0.00 in0.0 mm 0.00 in0.0 mm
05:02 AM 81.7°F27.6°C 73.4°F23.0°C 76% 1.6 mph NNW2.6 kmh NNW 1.6 mph2.6 kmh 29.80 in1009.1 mb 0.00 in0.0 mm 0.00 in0.0 mm 0.00 in0.0 mm
05:07 AM 81.7°F27.6°C 73.4°F23.0°C 76% Calm Calm 1.6 mph2.6 kmh 29.80 in1009.1 mb 0.00 in0.0 mm 0.00 in0.0 mm 0.00 in0.0 mm
05:12 AM 81.7°F27.6°C 73.4°F23.0°C 76% Calm Calm -- 29.81 in1009.5 mb 0.00 in0.0 mm 0.00 in0.0 mm 0.00 in0.0 mm
05:17 AM 81.7°F27.6°C 73.4°F23.0°C 76% Calm Calm -- 29.81 in1009.5 mb 0.00 in0.0 mm 0.00 in0.0 mm 0.00 in0.0 mm
05:22 AM 81.7°F27.6°C 73.4°F23.0°C 76% 1.6 mph ESE2.6 kmh ESE 2.2 mph3.5 kmh 29.81 in1009.5 mb 0.00 in0.0 mm 0.00 in0.0 mm 0.00 in0.0 mm
05:27 AM 81.7°F27.6°C 73.4°F23.0°C 76% 1.6 mph WSW2.6 kmh WSW 2.2 mph3.5 kmh 29.81 in1009.5 mb 0.00 in0.0 mm 0.00 in0.0 mm 0.00 in0.0 mm
05:32 AM 81.7°F27.6°C 73.0°F22.8°C 75% Calm Calm 1.6 mph2.6 kmh 29.81 in1009.5 mb 0.00 in0.0 mm 0.00 in0.0 mm 0.00 in0.0 mm
05:37 AM 81.7°F27.6°C 73.0°F22.8°C 75% Calm Calm -- 29.81 in1009.5 mb 0.00 in0.0 mm 0.00 in0.0 mm 0.00 in0.0 mm
05:42 AM 81.7°F27.6°C 73.0°F22.8°C 75% Calm Calm -- 29.81 in1009.5 mb 0.00 in0.0 mm 0.00 in0.0 mm 0.00 in0.0 mm
05:47 AM 81.5°F27.5°C 73.2°F22.9°C 76% Calm Calm -- 29.81 in1009.5 mb 0.00 in0.0 mm 0.00 in0.0 mm 0.00 in0.0 mm
05:52 AM 81.5°F27.5°C 73.2°F22.9°C 76% Calm Calm -- 29.81 in1009.5 mb 0.00 in0.0 mm 0.00 in0.0 mm 0.00 in0.0 mm
05:57 AM 81.5°F27.5°C 73.2°F22.9°C 76% Calm Calm 0.7 mph1.1 kmh 29.81 in1009.5 mb 0.00 in0.0 mm 0.00 in0.0 mm 0.00 in0.0 mm
06:02 AM 81.5°F27.5°C 72.8°F22.7°C 75% Calm Calm 0.7 mph1.1 kmh 29.81 in1009.5 mb 0.00 in0.0 mm 0.00 in0.0 mm 0.00 in0.0 mm
06:07 AM 81.5°F27.5°C 72.8°F22.7°C 75% Calm Calm -- 29.81 in1009.5 mb 0.00 in0.0 mm 0.00 in0.0 mm 0.00 in0.0 mm
06:12 AM 81.3°F27.4°C 72.2°F22.3°C 74% Calm Calm -- 29.82 in1009.8 mb 0.00 in0.0 mm 0.00 in0.0 mm 0.00 in0.0 mm
06:17 AM 81.3°F27.4°C 72.2°F22.3°C 74% Calm Calm -- 29.82 in1009.8 mb 0.00 in0.0 mm 0.00 in0.0 mm 0.00 in0.0 mm
06:22 AM 81.3°F27.4°C 72.2°F22.3°C 74% Calm Calm -- 29.82 in1009.8 mb 0.00 in0.0 mm 0.00 in0.0 mm 0.00 in0.0 mm
06:27 AM 81.3°F27.4°C 72.2°F22.3°C 74% Calm Calm -- 29.83 in1010.2 mb 0.00 in0.0 mm 0.00 in0.0 mm 0.00 in0.0 mm
06:32 AM 81.3°F27.4°C 72.2°F22.3°C 74% Calm Calm -- 29.83 in1010.2 mb 0.00 in0.0 mm 0.00 in0.0 mm 0.00 in0.0 mm
06:38 AM 81.1°F27.3°C 72.1°F22.3°C 74% Calm Calm -- 29.83 in1010.2 mb 0.00 in0.0 mm 0.00 in0.0 mm 0.00 in0.0 mm
06:43 AM 81.1°F27.3°C 72.1°F22.3°C 74% Calm Calm -- 29.83 in1010.2 mb 0.00 in0.0 mm 0.00 in0.0 mm 0.00 in0.0 mm
06:48 AM 81.1°F27.3°C 72.1°F22.3°C 74% Calm Calm -- 29.83 in1010.2 mb 0.00 in0.0 mm 0.00 in0.0 mm 0.00 in0.0 mm
06:53 AM 81.1°F27.3°C 72.1°F22.3°C 74% 1.7 mph SW2.7 kmh SW 1.8 mph2.9 kmh 29.83 in1010.2 mb 0.00 in0.0 mm 0.00 in0.0 mm 0.00 in0.0 mm
06:58 AM 81.3°F27.4°C 72.2°F22.3°C 74% Calm Calm 1.8 mph2.9 kmh 29.83 in1010.2 mb 0.00 in0.0 mm 0.00 in0.0 mm 0.00 in0.0 mm
07:03 AM 81.3°F27.4°C 72.2°F22.3°C 74% Calm Calm -- 29.84 in1010.5 mb 0.00 in0.0 mm 0.00 in0.0 mm 0.00 in0.0 mm
07:08 AM 81.3°F27.4°C 72.2°F22.3°C 74% Calm Calm -- 29.84 in1010.5 mb 0.00 in0.0 mm 0.00 in0.0 mm 0.00 in0.0 mm
07:13 AM 81.5°F27.5°C 72.4°F22.4°C 74% Calm Calm -- 29.84 in1010.5 mb 0.00 in0.0 mm 0.00 in0.0 mm 0.00 in0.0 mm
07:18 AM 81.5°F27.5°C 72.4°F22.4°C 74% Calm Calm -- 29.84 in1010.5 mb 0.00 in0.0 mm 0.00 in0.0 mm 0.00 in0.0 mm
07:23 AM 81.5°F27.5°C 72.4°F22.4°C 74% Calm Calm -- 29.84 in1010.5 mb 0.00 in0.0 mm 0.00 in0.0 mm 0.00 in0.0 mm
07:28 AM 81.7°F27.6°C 72.6°F22.6°C 74% Calm Calm -- 29.84 in1010.5 mb 0.00 in0.0 mm 0.00 in0.0 mm 0.00 in0.0 mm
07:33 AM 81.5°F27.5°C 72.4°F22.4°C 74% 1.6 mph E2.6 kmh E 1.6 mph2.6 kmh 29.84 in1010.5 mb 0.00 in0.0 mm 0.00 in0.0 mm 0.00 in0.0 mm
07:38 AM 81.7°F27.6°C 72.6°F22.6°C 74% Calm Calm 1.6 mph2.6 kmh 29.84 in1010.5 mb 0.00 in0.0 mm 0.00 in0.0 mm 0.00 in0.0 mm
07:43 AM 81.7°F27.6°C 72.6°F22.6°C 74% Calm Calm 1.6 mph2.6 kmh 29.84 in1010.5 mb 0.00 in0.0 mm 0.00 in0.0 mm 0.00 in0.0 mm
07:48 AM 82.0°F27.8°C 73.3°F22.9°C 75% Calm Calm -- 29.85 in1010.8 mb 0.00 in0.0 mm 0.00 in0.0 mm 0.00 in0.0 mm
07:53 AM 82.0°F27.8°C 73.3°F22.9°C 75% 1.8 mph SE2.9 kmh SE 2.0 mph3.2 kmh 29.85 in1010.8 mb 0.00 in0.0 mm 0.00 in0.0 mm 0.00 in0.0 mm
07:58 AM 81.9°F27.7°C 73.1°F22.8°C 75% 1.9 mph SE3.1 kmh SE 2.0 mph3.2 kmh 29.85 in1010.8 mb 0.00 in0.0 mm 0.00 in0.0 mm 0.00 in0.0 mm
08:04 AM 81.9°F27.7°C 73.6°F23.1°C 76% Calm Calm 2.0 mph3.2 kmh 29.85 in1010.8 mb 0.00 in0.0 mm 0.00 in0.0 mm 0.00 in0.0 mm
08:09 AM 82.0°F27.8°C 73.7°F23.2°C 76% 2.0 mph SE3.2 kmh SE 2.5 mph4.0 kmh 29.85 in1010.8 mb 0.00 in0.0 mm 0.00 in0.0 mm 0.00 in0.0 mm
08:14 AM 82.0°F27.8°C 73.3°F22.9°C 75% 1.8 mph SE2.9 kmh SE 2.5 mph4.0 kmh 29.85 in1010.8 mb 0.00 in0.0 mm 0.00 in0.0 mm 0.00 in0.0 mm
08:19 AM 82.0°F27.8°C 73.3°F22.9°C 75% 1.6 mph SE2.6 kmh SE 2.2 mph3.5 kmh 29.85 in1010.8 mb 0.00 in0.0 mm 0.00 in0.0 mm 0.00 in0.0 mm
08:24 AM 82.0°F27.8°C 72.9°F22.7°C 74% 2.1 mph SE3.4 kmh SE 3.4 mph5.5 kmh 29.86 in1011.2 mb 0.00 in0.0 mm 0.00 in0.0 mm 0.00 in0.0 mm
08:29 AM 81.7°F27.6°C 72.6°F22.6°C 74% 1.8 mph SE2.9 kmh SE 3.4 mph5.5 kmh 29.86 in1011.2 mb 0.00 in0.0 mm 0.00 in0.0 mm 0.00 in0.0 mm
08:34 AM 81.7°F27.6°C 72.6°F22.6°C 74% 2.3 mph SE3.7 kmh SE 3.1 mph5.0 kmh 29.86 in1011.2 mb 0.00 in0.0 mm 0.00 in0.0 mm 0.00 in0.0 mm
08:39 AM 81.7°F27.6°C 72.6°F22.6°C 74% 1.7 mph SE2.7 kmh SE 3.1 mph5.0 kmh 29.86 in1011.2 mb 0.00 in0.0 mm 0.00 in0.0 mm 0.00 in0.0 mm
08:44 AM 81.7°F27.6°C 72.6°F22.6°C 74% 1.9 mph SE3.1 kmh SE 3.1 mph5.0 kmh 29.86 in1011.2 mb 0.00 in0.0 mm 0.00 in0.0 mm 0.00 in0.0 mm
08:49 AM 82.0°F27.8°C 72.5°F22.5°C 73% 2.9 mph SE4.7 kmh SE 4.0 mph6.4 kmh 29.86 in1011.2 mb 0.00 in0.0 mm 0.00 in0.0 mm 0.00 in0.0 mm
08:54 AM 82.2°F27.9°C 72.7°F22.6°C 73% 2.2 mph ESE3.5 kmh ESE 4.0 mph6.4 kmh 29.86 in1011.2 mb 0.00 in0.0 mm 0.00 in0.0 mm 0.00 in0.0 mm
08:59 AM 82.6°F28.1°C 73.0°F22.8°C 73% 2.9 mph SE4.7 kmh SE 4.7 mph7.6 kmh 29.87 in1011.5 mb 0.00 in0.0 mm 0.00 in0.0 mm 0.00 in0.0 mm
09:04 AM 82.6°F28.1°C 72.6°F22.6°C 72% 2.8 mph SE4.5 kmh SE 4.7 mph7.6 kmh 29.87 in1011.5 mb 0.00 in0.0 mm 0.00 in0.0 mm 0.00 in0.0 mm
09:09 AM 82.6°F28.1°C 72.6°F22.6°C 72% Calm Calm 4.7 mph7.6 kmh 29.87 in1011.5 mb 0.00 in0.0 mm 0.00 in0.0 mm 0.00 in0.0 mm
09:14 AM 82.9°F28.3°C 72.5°F22.5°C 71% 1.5 mph SSW2.4 kmh SSW 3.4 mph5.5 kmh 29.87 in1011.5 mb 0.00 in0.0 mm 0.00 in0.0 mm 0.00 in0.0 mm
09:19 AM 83.1°F28.4°C 72.7°F22.6°C 71% 2.0 mph SE3.2 kmh SE 3.6 mph5.8 kmh 29.87 in1011.5 mb 0.00 in0.0 mm 0.00 in0.0 mm 0.00 in0.0 mm
09:24 AM 83.3°F28.5°C 72.5°F22.5°C 70% 2.6 mph SSW4.2 kmh SSW 4.3 mph6.9 kmh 29.87 in1011.5 mb 0.00 in0.0 mm 0.00 in0.0 mm 0.00 in0.0 mm
09:29 AM 83.5°F28.6°C 72.2°F22.3°C 69% 2.0 mph SE3.2 kmh SE 5.8 mph9.3 kmh 29.87 in1011.5 mb 0.00 in0.0 mm 0.00 in0.0 mm 0.00 in0.0 mm
09:34 AM 83.7°F28.7°C 72.4°F22.4°C 69% 1.8 mph WSW2.9 kmh WSW 5.8 mph9.3 kmh 29.86 in1011.2 mb 0.00 in0.0 mm 0.00 in0.0 mm 0.00 in0.0 mm
09:39 AM 84.0°F28.9°C 73.2°F22.9°C 70% 1.2 mph WSW1.9 kmh WSW 5.1 mph8.2 kmh 29.87 in1011.5 mb 0.00 in0.0 mm 0.00 in0.0 mm 0.00 in0.0 mm
09:44 AM 84.4°F29.1°C 73.1°F22.8°C 69% 3.1 mph SW5.0 kmh SW 4.7 mph7.6 kmh 29.87 in1011.5 mb 0.00 in0.0 mm 0.00 in0.0 mm 0.00 in0.0 mm
09:49 AM 84.6°F29.2°C 72.4°F22.4°C 67% 3.4 mph SW5.5 kmh SW 5.4 mph8.7 kmh 29.86 in1011.2 mb 0.00 in0.0 mm 0.00 in0.0 mm 0.00 in0.0 mm
09:54 AM 84.7°F29.3°C 72.6°F22.6°C 67% 1.4 mph NW2.3 kmh NW 5.4 mph8.7 kmh 29.86 in1011.2 mb 0.00 in0.0 mm 0.00 in0.0 mm 0.00 in0.0 mm
10:00 AM 84.9°F29.4°C 72.7°F22.6°C 67% 2.3 mph SSW3.7 kmh SSW 3.4 mph5.5 kmh 29.86 in1011.2 mb 0.00 in0.0 mm 0.00 in0.0 mm 0.00 in0.0 mm
10:05 AM 84.9°F29.4°C 72.7°F22.6°C 67% Calm Calm 4.5 mph7.2 kmh 29.86 in1011.2 mb 0.00 in0.0 mm 0.00 in0.0 mm 0.00 in0.0 mm
10:10 AM 85.1°F29.5°C 72.5°F22.5°C 66% 2.4 mph SW3.9 kmh SW 4.9 mph7.9 kmh 29.87 in1011.5 mb 0.00 in0.0 mm 0.00 in0.0 mm 0.00 in0.0 mm
10:15 AM 85.1°F29.5°C 72.5°F22.5°C 66% 2.4 mph SW3.9 kmh SW 4.9 mph7.9 kmh 29.87 in1011.5 mb 0.00 in0.0 mm 0.00 in0.0 mm 0.00 in0.0 mm
10:20 AM 85.1°F29.5°C 72.5°F22.5°C 66% 1.1 mph S1.8 kmh S 5.1 mph8.2 kmh 29.86 in1011.2 mb 0.00 in0.0 mm 0.00 in0.0 mm 0.00 in0.0 mm
10:25 AM 85.3°F29.6°C 72.6°F22.6°C 66% 2.1 mph WSW3.4 kmh WSW 5.1 mph8.2 kmh 29.86 in1011.2 mb 0.00 in0.0 mm 0.00 in0.0 mm 0.00 in0.0 mm
10:30 AM 85.5°F29.7°C 72.3°F22.4°C 65% 2.7 mph W4.3 kmh W 6.7 mph10.8 kmh 29.87 in1011.5 mb 0.00 in0.0 mm 0.00 in0.0 mm 0.00 in0.0 mm
10:35 AM 85.8°F29.9°C 72.2°F22.3°C 64% 3.3 mph SW5.3 kmh SW 6.7 mph10.8 kmh 29.86 in1011.2 mb 0.00 in0.0 mm 0.00 in0.0 mm 0.00 in0.0 mm
10:40 AM 85.8°F29.9°C 72.7°F22.6°C 65% 1.9 mph E3.1 kmh E 4.9 mph7.9 kmh 29.86 in1011.2 mb 0.00 in0.0 mm 0.00 in0.0 mm 0.00 in0.0 mm
10:45 AM 86.2°F30.1°C 72.6°F22.6°C 64% Calm Calm 4.0 mph6.4 kmh 29.86 in1011.2 mb 0.00 in0.0 mm 0.00 in0.0 mm 0.00 in0.0 mm
10:50 AM 86.4°F30.2°C 72.7°F22.6°C 64% 1.6 mph NE2.6 kmh NE 2.7 mph4.3 kmh 29.86 in1011.2 mb 0.00 in0.0 mm 0.00 in0.0 mm 0.00 in0.0 mm
10:55 AM 86.5°F30.3°C 72.9°F22.7°C 64% 1.8 mph SE2.9 kmh SE 2.7 mph4.3 kmh 29.86 in1011.2 mb 0.00 in0.0 mm 0.00 in0.0 mm 0.00 in0.0 mm
11:00 AM 86.5°F30.3°C 72.4°F22.4°C 63% 2.0 mph NE3.2 kmh NE 2.9 mph4.7 kmh 29.86 in1011.2 mb 0.00 in0.0 mm 0.00 in0.0 mm 0.00 in0.0 mm
11:05 AM 86.7°F30.4°C 72.6°F22.6°C 63% 0.7 mph SSE1.1 kmh SSE 2.9 mph4.7 kmh 29.86 in1011.2 mb 0.00 in0.0 mm 0.00 in0.0 mm 0.00 in0.0 mm
11:10 AM 86.7°F30.4°C 72.6°F22.6°C 63% 1.8 mph SW2.9 kmh SW 2.9 mph4.7 kmh 29.86 in1011.2 mb 0.00 in0.0 mm 0.00 in0.0 mm 0.00 in0.0 mm
11:15 AM 86.5°F30.3°C 72.0°F22.2°C 62% 3.2 mph SW5.1 kmh SW 5.4 mph8.7 kmh 29.86 in1011.2 mb 0.00 in0.0 mm 0.00 in0.0 mm 0.00 in0.0 mm
11:20 AM 86.4°F30.2°C 71.8°F22.1°C 62% 1.9 mph WSW3.1 kmh WSW 5.4 mph8.7 kmh 29.85 in1010.8 mb 0.00 in0.0 mm 0.00 in0.0 mm 0.00 in0.0 mm
11:25 AM 86.4°F30.2°C 71.8°F22.1°C 62% 1.7 mph NNE2.7 kmh NNE 3.4 mph5.5 kmh 29.86 in1011.2 mb 0.00 in0.0 mm 0.00 in0.0 mm 0.00 in0.0 mm
11:30 AM 86.5°F30.3°C 72.0°F22.2°C 62% 1.7 mph S2.7 kmh S 2.5 mph4.0 kmh 29.86 in1011.2 mb 0.00 in0.0 mm 0.00 in0.0 mm 0.00 in0.0 mm
11:35 AM 86.7°F30.4°C 72.2°F22.3°C 62% 1.5 mph WSW2.4 kmh WSW 1.8 mph2.9 kmh 29.85 in1010.8 mb 0.00 in0.0 mm 0.00 in0.0 mm 0.00 in0.0 mm
11:40 AM 86.9°F30.5°C 71.9°F22.2°C 61% 0.7 mph WSW1.1 kmh WSW 1.6 mph2.6 kmh 29.85 in1010.8 mb 0.00 in0.0 mm 0.00 in0.0 mm 0.00 in0.0 mm
11:45 AM 86.7°F30.4°C 71.7°F22.1°C 61% Calm Calm 2.5 mph4.0 kmh 29.85 in1010.8 mb 0.00 in0.0 mm 0.00 in0.0 mm 0.00 in0.0 mm
11:50 AM 86.9°F30.5°C 71.9°F22.2°C 61% 2.6 mph ENE4.2 kmh ENE 3.8 mph6.1 kmh 29.85 in1010.8 mb 0.00 in0.0 mm 0.00 in0.0 mm 0.00 in0.0 mm
11:55 AM 87.1°F30.6°C 72.1°F22.3°C 61% 2.8 mph ENE4.5 kmh ENE 4.0 mph6.4 kmh 29.85 in1010.8 mb 0.00 in0.0 mm 0.00 in0.0 mm 0.00 in0.0 mm
12:00 PM 87.1°F30.6°C 72.1°F22.3°C 61% 1.8 mph E2.9 kmh E 4.0 mph6.4 kmh 29.85 in1010.8 mb 0.00 in0.0 mm 0.00 in0.0 mm 0.00 in0.0 mm
12:05 PM 87.1°F30.6°C 72.1°F22.3°C 61% 3.2 mph SE5.1 kmh SE 3.4 mph5.5 kmh 29.85 in1010.8 mb 0.00 in0.0 mm 0.00 in0.0 mm 0.00 in0.0 mm
12:11 PM 87.1°F30.6°C 71.6°F22.0°C 60% 1.5 mph SE2.4 kmh SE 3.4 mph5.5 kmh 29.84 in1010.5 mb 0.00 in0.0 mm 0.00 in0.0 mm 0.00 in0.0 mm
12:16 PM 87.1°F30.6°C 71.6°F22.0°C 60% 2.2 mph E3.5 kmh E 3.1 mph5.0 kmh 29.84 in1010.5 mb 0.00 in0.0 mm 0.00 in0.0 mm 0.00 in0.0 mm
12:21 PM 87.1°F30.6°C 72.1°F22.3°C 61% 2.3 mph NE3.7 kmh NE 3.8 mph6.1 kmh 29.84 in1010.5 mb 0.00 in0.0 mm 0.00 in0.0 mm 0.00 in0.0 mm
12:26 PM 87.4°F30.8°C 72.4°F22.4°C 61% Calm Calm 3.8 mph6.1 kmh 29.84 in1010.5 mb 0.00 in0.0 mm 0.00 in0.0 mm 0.00 in0.0 mm
12:31 PM 87.6°F30.9°C 72.1°F22.3°C 60% 2.4 mph ESE3.9 kmh ESE 2.9 mph4.7 kmh 29.84 in1010.5 mb 0.00 in0.0 mm 0.00 in0.0 mm 0.00 in0.0 mm
12:36 PM 87.8°F31.0°C 71.8°F22.1°C 59% 1.7 mph E2.7 kmh E 3.6 mph5.8 kmh 29.84 in1010.5 mb 0.00 in0.0 mm 0.00 in0.0 mm 0.00 in0.0 mm
12:41 PM 88.0°F31.1°C 71.9°F22.2°C 59% 2.3 mph ENE3.7 kmh ENE 4.7 mph7.6 kmh 29.84 in1010.5 mb 0.00 in0.0 mm 0.00 in0.0 mm 0.00 in0.0 mm
12:46 PM 88.2°F31.2°C 72.1°F22.3°C 59% 2.1 mph NE3.4 kmh NE 4.7 mph7.6 kmh 29.84 in1010.5 mb 0.00 in0.0 mm 0.00 in0.0 mm 0.00 in0.0 mm
12:51 PM 88.2°F31.2°C 72.1°F22.3°C 59% 2.3 mph SSE3.7 kmh SSE 4.0 mph6.4 kmh 29.84 in1010.5 mb 0.00 in0.0 mm 0.00 in0.0 mm 0.00 in0.0 mm
12:56 PM 88.3°F31.3°C 72.3°F22.4°C 59% Calm Calm 4.7 mph7.6 kmh 29.84 in1010.5 mb 0.00 in0.0 mm 0.00 in0.0 mm 0.00 in0.0 mm
01:01 PM 88.5°F31.4°C 71.9°F22.2°C 58% 5.4 mph ESE8.7 kmh ESE 7.2 mph11.6 kmh 29.84 in1010.5 mb 0.00 in0.0 mm 0.00 in0.0 mm 0.00 in0.0 mm
01:06 PM 88.5°F31.4°C 72.4°F22.4°C 59% Calm Calm 7.2 mph11.6 kmh 29.83 in1010.2 mb 0.00 in0.0 mm 0.00 in0.0 mm 0.00 in0.0 mm
01:11 PM 88.3°F31.3°C 71.7°F22.1°C 58% 2.4 mph ESE3.9 kmh ESE 6.3 mph10.1 kmh 29.84 in1010.5 mb 0.00 in0.0 mm 0.00 in0.0 mm 0.00 in0.0 mm
01:16 PM 88.2°F31.2°C 71.6°F22.0°C 58% 1.9 mph SE3.1 kmh SE 5.1 mph8.2 kmh 29.83 in1010.2 mb 0.00 in0.0 mm 0.00 in0.0 mm 0.00 in0.0 mm
01:21 PM 88.0°F31.1°C 71.4°F21.9°C 58% 2.0 mph SW3.2 kmh SW 4.7 mph7.6 kmh 29.83 in1010.2 mb 0.00 in0.0 mm 0.00 in0.0 mm 0.00 in0.0 mm
01:26 PM 88.0°F31.1°C 71.4°F21.9°C 58% 1.3 mph SSE2.1 kmh SSE 3.1 mph5.0 kmh 29.83 in1010.2 mb 0.00 in0.0 mm 0.00 in0.0 mm 0.00 in0.0 mm
01:31 PM 88.3°F31.3°C 72.3°F22.4°C 59% 2.0 mph ESE3.2 kmh ESE 3.6 mph5.8 kmh 29.83 in1010.2 mb 0.00 in0.0 mm 0.00 in0.0 mm 0.00 in0.0 mm
01:36 PM 88.3°F31.3°C 71.7°F22.1°C 58% 2.5 mph SSE4.0 kmh SSE 4.9 mph7.9 kmh 29.82 in1009.8 mb 0.00 in0.0 mm 0.00 in0.0 mm 0.00 in0.0 mm
01:41 PM 88.2°F31.2°C 72.1°F22.3°C 59% 2.2 mph SE3.5 kmh SE 5.8 mph9.3 kmh 29.82 in1009.8 mb 0.00 in0.0 mm 0.00 in0.0 mm 0.00 in0.0 mm
01:46 PM 88.0°F31.1°C 71.4°F21.9°C 58% 4.3 mph SE6.9 kmh SE 7.6 mph12.2 kmh 29.82 in1009.8 mb 0.00 in0.0 mm 0.00 in0.0 mm 0.00 in0.0 mm
01:51 PM 88.0°F31.1°C 71.9°F22.2°C 59% 3.1 mph SE5.0 kmh SE 7.6 mph12.2 kmh 29.82 in1009.8 mb 0.00 in0.0 mm 0.00 in0.0 mm 0.00 in0.0 mm
01:56 PM 87.8°F31.0°C 71.8°F22.1°C 59% 1.8 mph SE2.9 kmh SE 4.7 mph7.6 kmh 29.82 in1009.8 mb 0.00 in0.0 mm 0.00 in0.0 mm 0.00 in0.0 mm
02:01 PM 87.8°F31.0°C 71.8°F22.1°C 59% 2.0 mph ESE3.2 kmh ESE 5.1 mph8.2 kmh 29.81 in1009.5 mb 0.00 in0.0 mm 0.00 in0.0 mm 0.00 in0.0 mm
02:06 PM 87.6°F30.9°C 72.1°F22.3°C 60% 2.6 mph SE4.2 kmh SE 5.1 mph8.2 kmh 29.81 in1009.5 mb 0.00 in0.0 mm 0.00 in0.0 mm 0.00 in0.0 mm
02:11 PM 87.4°F30.8°C 71.4°F21.9°C 59% 3.2 mph SE5.1 kmh SE 6.7 mph10.8 kmh 29.81 in1009.5 mb 0.00 in0.0 mm 0.00 in0.0 mm 0.00 in0.0 mm
02:17 PM 87.4°F30.8°C 72.0°F22.2°C 60% 2.9 mph SE4.7 kmh SE 6.7 mph10.8 kmh 29.81 in1009.5 mb 0.00 in0.0 mm 0.00 in0.0 mm 0.00 in0.0 mm
02:21 PM 87.3°F30.7°C 71.8°F22.1°C 60% 2.5 mph SE4.0 kmh SE 5.6 mph9.0 kmh 29.80 in1009.1 mb 0.00 in0.0 mm 0.00 in0.0 mm 0.00 in0.0 mm
02:26 PM 87.1°F30.6°C 71.6°F22.0°C 60% 3.2 mph SE5.1 kmh SE 4.9 mph7.9 kmh 29.80 in1009.1 mb 0.00 in0.0 mm 0.00 in0.0 mm 0.00 in0.0 mm
02:32 PM 87.1°F30.6°C 71.6°F22.0°C 60% 3.9 mph SE6.3 kmh SE 5.1 mph8.2 kmh 29.80 in1009.1 mb 0.00 in0.0 mm 0.00 in0.0 mm 0.00 in0.0 mm
02:37 PM 87.1°F30.6°C 71.6°F22.0°C 60% 2.4 mph SE3.9 kmh SE 6.3 mph10.1 kmh 29.80 in1009.1 mb 0.00 in0.0 mm 0.00 in0.0 mm 0.00 in0.0 mm
02:42 PM 87.1°F30.6°C 71.6°F22.0°C 60% 3.3 mph SE5.3 kmh SE 6.3 mph10.1 kmh 29.79 in1008.8 mb 0.00 in0.0 mm 0.00 in0.0 mm 0.00 in0.0 mm
02:47 PM 87.3°F30.7°C 71.8°F22.1°C 60% 4.2 mph SE6.8 kmh SE 7.6 mph12.2 kmh 29.79 in1008.8 mb 0.00 in0.0 mm 0.00 in0.0 mm 0.00 in0.0 mm
02:52 PM 87.4°F30.8°C 71.4°F21.9°C 59% 5.8 mph SE9.3 kmh SE 7.6 mph12.2 kmh 29.79 in1008.8 mb 0.00 in0.0 mm 0.00 in0.0 mm 0.00 in0.0 mm
02:57 PM 88.0°F31.1°C 72.5°F22.5°C 60% 3.7 mph SE6.0 kmh SE 8.3 mph13.4 kmh 29.79 in1008.8 mb 0.00 in0.0 mm 0.00 in0.0 mm 0.00 in0.0 mm
03:02 PM 88.3°F31.3°C 72.8°F22.7°C 60% 2.7 mph SSE4.3 kmh SSE 8.3 mph13.4 kmh 29.79 in1008.8 mb 0.00 in0.0 mm 0.00 in0.0 mm 0.00 in0.0 mm
03:07 PM 88.5°F31.4°C 72.4°F22.4°C 59% 1.9 mph SE3.1 kmh SE 6.9 mph11.1 kmh 29.78 in1008.5 mb 0.00 in0.0 mm 0.00 in0.0 mm 0.00 in0.0 mm
03:12 PM 88.9°F31.6°C 72.8°F22.7°C 59% 3.6 mph SE5.8 kmh SE 6.7 mph10.8 kmh 29.78 in1008.5 mb 0.00 in0.0 mm 0.00 in0.0 mm 0.00 in0.0 mm
03:17 PM 89.2°F31.8°C 73.1°F22.8°C 59% 1.7 mph S2.7 kmh S 6.7 mph10.8 kmh 29.78 in1008.5 mb 0.00 in0.0 mm 0.00 in0.0 mm 0.00 in0.0 mm
03:22 PM 89.4°F31.9°C 72.7°F22.6°C 58% 3.4 mph SE5.5 kmh SE 7.6 mph12.2 kmh 29.78 in1008.5 mb 0.00 in0.0 mm 0.00 in0.0 mm 0.00 in0.0 mm
03:27 PM 89.4°F31.9°C 72.2°F22.3°C 57% 4.7 mph SE7.6 kmh SE 7.8 mph12.6 kmh 29.78 in1008.5 mb 0.00 in0.0 mm 0.00 in0.0 mm 0.00 in0.0 mm
03:32 PM 89.4°F31.9°C 72.7°F22.6°C 58% 2.5 mph S4.0 kmh S 7.8 mph12.6 kmh 29.78 in1008.5 mb 0.00 in0.0 mm 0.00 in0.0 mm 0.00 in0.0 mm
03:37 PM 89.4°F31.9°C 72.7°F22.6°C 58% 4.3 mph SW6.9 kmh SW 6.9 mph11.1 kmh 29.77 in1008.1 mb 0.00 in0.0 mm 0.00 in0.0 mm 0.00 in0.0 mm
03:42 PM 89.6°F32.0°C 72.3°F22.4°C 57% 4.3 mph SW6.9 kmh SW 8.5 mph13.7 kmh 29.77 in1008.1 mb 0.00 in0.0 mm 0.00 in0.0 mm 0.00 in0.0 mm
03:47 PM 89.6°F32.0°C 72.3°F22.4°C 57% 2.7 mph SW4.3 kmh SW 8.5 mph13.7 kmh 29.77 in1008.1 mb 0.00 in0.0 mm 0.00 in0.0 mm 0.00 in0.0 mm
03:52 PM 89.8°F32.1°C 72.5°F22.5°C 57% 2.6 mph SW4.2 kmh SW 6.0 mph9.7 kmh 29.77 in1008.1 mb 0.00 in0.0 mm 0.00 in0.0 mm 0.00 in0.0 mm
03:57 PM 89.4°F31.9°C 72.2°F22.3°C 57% 3.2 mph SW5.1 kmh SW 5.8 mph9.3 kmh 29.77 in1008.1 mb 0.00 in0.0 mm 0.00 in0.0 mm 0.00 in0.0 mm
04:02 PM 89.4°F31.9°C 72.2°F22.3°C 57% 3.3 mph SW5.3 kmh SW 6.3 mph10.1 kmh 29.77 in1008.1 mb 0.00 in0.0 mm 0.00 in0.0 mm 0.00 in0.0 mm
04:07 PM 89.4°F31.9°C 72.2°F22.3°C 57% 3.2 mph WSW5.1 kmh WSW 7.2 mph11.6 kmh 29.77 in1008.1 mb 0.00 in0.0 mm 0.00 in0.0 mm 0.00 in0.0 mm
04:13 PM 89.4°F31.9°C 72.2°F22.3°C 57% 2.6 mph S4.2 kmh S 7.6 mph12.2 kmh 29.76 in1007.8 mb 0.00 in0.0 mm 0.00 in0.0 mm 0.00 in0.0 mm
04:18 PM 89.4°F31.9°C 72.2°F22.3°C 57% 5.8 mph WSW9.3 kmh WSW 8.7 mph14.0 kmh 29.76 in1007.8 mb 0.00 in0.0 mm 0.00 in0.0 mm 0.00 in0.0 mm
04:23 PM 89.4°F31.9°C 72.2°F22.3°C 57% 4.1 mph WSW6.6 kmh WSW 8.7 mph14.0 kmh 29.76 in1007.8 mb 0.00 in0.0 mm 0.00 in0.0 mm 0.00 in0.0 mm
04:28 PM 89.4°F31.9°C 72.2°F22.3°C 57% 3.2 mph SE5.1 kmh SE 6.7 mph10.8 kmh 29.76 in1007.8 mb 0.00 in0.0 mm 0.00 in0.0 mm 0.00 in0.0 mm
04:33 PM 89.4°F31.9°C 72.2°F22.3°C 57% 3.8 mph SW6.1 kmh SW 7.8 mph12.6 kmh 29.75 in1007.5 mb 0.00 in0.0 mm 0.00 in0.0 mm 0.00 in0.0 mm
04:38 PM 89.6°F32.0°C 72.3°F22.4°C 57% 5.3 mph WSW8.5 kmh WSW 7.8 mph12.6 kmh 29.75 in1007.5 mb 0.00 in0.0 mm 0.00 in0.0 mm 0.00 in0.0 mm
04:43 PM 89.4°F31.9°C 71.6°F22.0°C 56% 7.2 mph SW11.6 kmh SW 9.8 mph15.8 kmh 29.75 in1007.5 mb 0.00 in0.0 mm 0.00 in0.0 mm 0.00 in0.0 mm
04:48 PM 89.8°F32.1°C 71.9°F22.2°C 56% 4.9 mph SW7.9 kmh SW 9.8 mph15.8 kmh 29.75 in1007.5 mb 0.00 in0.0 mm 0.00 in0.0 mm 0.00 in0.0 mm
04:53 PM 89.8°F32.1°C 71.9°F22.2°C 56% 4.1 mph SW6.6 kmh SW 7.8 mph12.6 kmh 29.75 in1007.5 mb 0.00 in0.0 mm 0.00 in0.0 mm 0.00 in0.0 mm
04:58 PM 89.8°F32.1°C 71.9°F22.2°C 56% 3.9 mph WSW6.3 kmh WSW 8.3 mph13.4 kmh 29.75 in1007.5 mb 0.00 in0.0 mm 0.00 in0.0 mm 0.00 in0.0 mm
05:03 PM 89.4°F31.9°C 71.6°F22.0°C 56% 2.1 mph WSW3.4 kmh WSW 8.3 mph13.4 kmh 29.75 in1007.5 mb 0.00 in0.0 mm 0.00 in0.0 mm 0.00 in0.0 mm
05:08 PM 89.8°F32.1°C 72.5°F22.5°C 57% 1.6 mph SW2.6 kmh SW 4.0 mph6.4 kmh 29.75 in1007.5 mb 0.00 in0.0 mm 0.00 in0.0 mm 0.00 in0.0 mm
05:13 PM 89.8°F32.1°C 71.9°F22.2°C 56% 2.2 mph SSE3.5 kmh SSE 4.0 mph6.4 kmh 29.75 in1007.5 mb 0.00 in0.0 mm 0.00 in0.0 mm 0.00 in0.0 mm
05:18 PM 89.8°F32.1°C 71.9°F22.2°C 56% 5.0 mph SW8.0 kmh SW 7.4 mph11.9 kmh 29.74 in1007.1 mb 0.00 in0.0 mm 0.00 in0.0 mm 0.00 in0.0 mm
05:23 PM 89.8°F32.1°C 71.9°F22.2°C 56% 3.1 mph WSW5.0 kmh WSW 7.4 mph11.9 kmh 29.74 in1007.1 mb 0.00 in0.0 mm 0.00 in0.0 mm 0.00 in0.0 mm
05:28 PM 90.0°F32.2°C 72.1°F22.3°C 56% 2.2 mph WSW3.5 kmh WSW 6.3 mph10.1 kmh 29.74 in1007.1 mb 0.00 in0.0 mm 0.00 in0.0 mm 0.00 in0.0 mm
05:33 PM 90.0°F32.2°C 72.1°F22.3°C 56% 2.5 mph WSW4.0 kmh WSW 6.3 mph10.1 kmh 29.74 in1007.1 mb 0.00 in0.0 mm 0.00 in0.0 mm 0.00 in0.0 mm
05:38 PM 90.1°F32.3°C 72.3°F22.4°C 56% 2.3 mph WSW3.7 kmh WSW 5.8 mph9.3 kmh 29.74 in1007.1 mb 0.00 in0.0 mm 0.00 in0.0 mm 0.00 in0.0 mm
05:43 PM 90.1°F32.3°C 71.7°F22.1°C 55% 5.0 mph WSW8.0 kmh WSW 9.2 mph14.8 kmh 29.75 in1007.5 mb 0.00 in0.0 mm 0.00 in0.0 mm 0.00 in0.0 mm
05:48 PM 90.0°F32.2°C 71.6°F22.0°C 55% 4.0 mph SW6.4 kmh SW 9.2 mph14.8 kmh 29.75 in1007.5 mb 0.00 in0.0 mm 0.00 in0.0 mm 0.00 in0.0 mm
05:53 PM 89.8°F32.1°C 71.9°F22.2°C 56% 1.8 mph WSW2.9 kmh WSW 6.9 mph11.1 kmh 29.75 in1007.5 mb 0.00 in0.0 mm 0.00 in0.0 mm 0.00 in0.0 mm
05:58 PM 89.8°F32.1°C 71.9°F22.2°C 56% 2.9 mph WSW4.7 kmh WSW 6.5 mph10.5 kmh 29.75 in1007.5 mb 0.00 in0.0 mm 0.00 in0.0 mm 0.00 in0.0 mm
06:03 PM 89.8°F32.1°C 71.9°F22.2°C 56% 2.4 mph SW3.9 kmh SW 6.3 mph10.1 kmh 29.75 in1007.5 mb 0.00 in0.0 mm 0.00 in0.0 mm 0.00 in0.0 mm
06:08 PM 89.8°F32.1°C 71.9°F22.2°C 56% 3.3 mph SW5.3 kmh SW 6.3 mph10.1 kmh 29.75 in1007.5 mb 0.00 in0.0 mm 0.00 in0.0 mm 0.00 in0.0 mm
06:14 PM 89.8°F32.1°C 71.9°F22.2°C 56% 1.6 mph WSW2.6 kmh WSW 5.8 mph9.3 kmh 29.75 in1007.5 mb 0.00 in0.0 mm 0.00 in0.0 mm 0.00 in0.0 mm
06:19 PM 89.4°F31.9°C 72.2°F22.3°C 57% 2.7 mph SW4.3 kmh SW 5.8 mph9.3 kmh 29.75 in1007.5 mb 0.00 in0.0 mm 0.00 in0.0 mm 0.00 in0.0 mm
06:24 PM 89.6°F32.0°C 72.3°F22.4°C 57% 2.3 mph WSW3.7 kmh WSW 5.1 mph8.2 kmh 29.76 in1007.8 mb 0.00 in0.0 mm 0.00 in0.0 mm 0.00 in0.0 mm
06:29 PM 89.4°F31.9°C 72.2°F22.3°C 57% 1.8 mph WSW2.9 kmh WSW 5.1 mph8.2 kmh 29.76 in1007.8 mb 0.00 in0.0 mm 0.00 in0.0 mm 0.00 in0.0 mm
06:34 PM 89.4°F31.9°C 72.2°F22.3°C 57% 1.9 mph WSW3.1 kmh WSW 5.1 mph8.2 kmh 29.76 in1007.8 mb 0.00 in0.0 mm 0.00 in0.0 mm 0.00 in0.0 mm
06:39 PM 89.4°F31.9°C 72.2°F22.3°C 57% 3.8 mph WSW6.1 kmh WSW 5.8 mph9.3 kmh 29.76 in1007.8 mb 0.00 in0.0 mm 0.00 in0.0 mm 0.00 in0.0 mm
06:44 PM 89.2°F31.8°C 72.0°F22.2°C 57% 1.5 mph WSW2.4 kmh WSW 5.8 mph9.3 kmh 29.76 in1007.8 mb 0.00 in0.0 mm 0.00 in0.0 mm 0.00 in0.0 mm
06:49 PM 89.2°F31.8°C 72.5°F22.5°C 58% Calm Calm 5.6 mph9.0 kmh 29.76 in1007.8 mb 0.00 in0.0 mm 0.00 in0.0 mm 0.00 in0.0 mm
06:54 PM 89.2°F31.8°C 72.5°F22.5°C 58% 2.1 mph WNW3.4 kmh WNW 4.3 mph6.9 kmh 29.77 in1008.1 mb 0.00 in0.0 mm 0.00 in0.0 mm 0.00 in0.0 mm
06:59 PM 89.2°F31.8°C 72.5°F22.5°C 58% 1.8 mph W2.9 kmh W 4.3 mph6.9 kmh 29.77 in1008.1 mb 0.00 in0.0 mm 0.00 in0.0 mm 0.00 in0.0 mm
07:04 PM 88.9°F31.6°C 72.2°F22.3°C 58% 2.6 mph SW4.2 kmh SW 6.0 mph9.7 kmh 29.77 in1008.1 mb 0.00 in0.0 mm 0.00 in0.0 mm 0.00 in0.0 mm
07:09 PM 88.9°F31.6°C 72.2°F22.3°C 58% 2.2 mph WSW3.5 kmh WSW 6.0 mph9.7 kmh 29.77 in1008.1 mb 0.00 in0.0 mm 0.00 in0.0 mm 0.00 in0.0 mm
07:14 PM 88.7°F31.5°C 72.1°F22.3°C 58% 2.0 mph WSW3.2 kmh WSW 2.9 mph4.7 kmh 29.78 in1008.5 mb 0.00 in0.0 mm 0.00 in0.0 mm 0.00 in0.0 mm
07:19 PM 88.5°F31.4°C 71.9°F22.2°C 58% Calm Calm 2.7 mph4.3 kmh 29.78 in1008.5 mb 0.00 in0.0 mm 0.00 in0.0 mm 0.00 in0.0 mm
07:24 PM 88.3°F31.3°C 71.7°F22.1°C 58% Calm Calm 2.7 mph4.3 kmh 29.78 in1008.5 mb 0.00 in0.0 mm 0.00 in0.0 mm 0.00 in0.0 mm
07:29 PM 88.2°F31.2°C 72.1°F22.3°C 59% Calm Calm 1.6 mph2.6 kmh 29.78 in1008.5 mb 0.00 in0.0 mm 0.00 in0.0 mm 0.00 in0.0 mm
07:34 PM 88.0°F31.1°C 71.9°F22.2°C 59% Calm Calm -- 29.78 in1008.5 mb 0.00 in0.0 mm 0.00 in0.0 mm 0.00 in0.0 mm
07:39 PM 87.8°F31.0°C 71.8°F22.1°C 59% Calm Calm -- 29.78 in1008.5 mb 0.00 in0.0 mm 0.00 in0.0 mm 0.00 in0.0 mm
07:44 PM 87.6°F30.9°C 71.6°F22.0°C 59% Calm Calm -- 29.79 in1008.8 mb 0.00 in0.0 mm 0.00 in0.0 mm 0.00 in0.0 mm
07:49 PM 87.6°F30.9°C 72.1°F22.3°C 60% Calm Calm -- 29.79 in1008.8 mb 0.00 in0.0 mm 0.00 in0.0 mm 0.00 in0.0 mm
07:55 PM 87.6°F30.9°C 72.1°F22.3°C 60% 1.4 mph WSW2.3 kmh WSW 2.0 mph3.2 kmh 29.79 in1008.8 mb 0.00 in0.0 mm 0.00 in0.0 mm 0.00 in0.0 mm
08:00 PM 87.6°F30.9°C 72.1°F22.3°C 60% Calm Calm 2.0 mph3.2 kmh 29.80 in1009.1 mb 0.00 in0.0 mm 0.00 in0.0 mm 0.00 in0.0 mm
08:04 PM 87.4°F30.8°C 72.0°F22.2°C 60% Calm Calm 1.6 mph2.6 kmh 29.80 in1009.1 mb 0.00 in0.0 mm 0.00 in0.0 mm 0.00 in0.0 mm
08:10 PM 87.3°F30.7°C 72.2°F22.3°C 61% Calm Calm -- 29.80 in1009.1 mb 0.00 in0.0 mm 0.00 in0.0 mm 0.00 in0.0 mm
08:15 PM 87.1°F30.6°C 72.1°F22.3°C 61% Calm Calm -- 29.80 in1009.1 mb 0.00 in0.0 mm 0.00 in0.0 mm 0.00 in0.0 mm
08:20 PM 87.1°F30.6°C 72.1°F22.3°C 61% Calm Calm -- 29.80 in1009.1 mb 0.00 in0.0 mm 0.00 in0.0 mm 0.00 in0.0 mm
08:25 PM 87.1°F30.6°C 72.5°F22.5°C 62% Calm Calm -- 29.80 in1009.1 mb 0.00 in0.0 mm 0.00 in0.0 mm 0.00 in0.0 mm
08:30 PM 87.1°F30.6°C 72.5°F22.5°C 62% 2.4 mph SE3.9 kmh SE 3.1 mph5.0 kmh 29.81 in1009.5 mb 0.00 in0.0 mm 0.00 in0.0 mm 0.00 in0.0 mm
08:35 PM 87.3°F30.7°C 72.7°F22.6°C 62% Calm Calm 3.1 mph5.0 kmh 29.80 in1009.1 mb 0.00 in0.0 mm 0.00 in0.0 mm 0.00 in0.0 mm
08:40 PM 86.7°F30.4°C 72.6°F22.6°C 63% Calm Calm 3.1 mph5.0 kmh 29.81 in1009.5 mb 0.00 in0.0 mm 0.00 in0.0 mm 0.00 in0.0 mm
08:45 PM 86.5°F30.3°C 72.9°F22.7°C 64% Calm Calm -- 29.81 in1009.5 mb 0.00 in0.0 mm 0.00 in0.0 mm 0.00 in0.0 mm
08:50 PM 86.2°F30.1°C 73.0°F22.8°C 65% Calm Calm -- 29.81 in1009.5 mb 0.00 in0.0 mm 0.00 in0.0 mm 0.00 in0.0 mm
08:55 PM 86.2°F30.1°C 73.0°F22.8°C 65% 2.0 mph SW3.2 kmh SW 2.0 mph3.2 kmh 29.81 in1009.5 mb 0.00 in0.0 mm 0.00 in0.0 mm 0.00 in0.0 mm
09:00 PM 85.8°F29.9°C 72.7°F22.6°C 65% 1.7 mph SW2.7 kmh SW 2.0 mph3.2 kmh 29.82 in1009.8 mb 0.00 in0.0 mm 0.00 in0.0 mm 0.00 in0.0 mm
09:05 PM 86.2°F30.1°C 72.6°F22.6°C 64% 1.9 mph WSW3.1 kmh WSW 2.7 mph4.3 kmh 29.82 in1009.8 mb 0.00 in0.0 mm 0.00 in0.0 mm 0.00 in0.0 mm
09:10 PM 86.2°F30.1°C 72.1°F22.3°C 63% 1.8 mph SSW2.9 kmh SSW 4.5 mph7.2 kmh 29.82 in1009.8 mb 0.00 in0.0 mm 0.00 in0.0 mm 0.00 in0.0 mm
09:15 PM 86.4°F30.2°C 72.3°F22.4°C 63% Calm Calm 4.5 mph7.2 kmh 29.83 in1010.2 mb 0.00 in0.0 mm 0.00 in0.0 mm 0.00 in0.0 mm
09:20 PM 86.2°F30.1°C 72.1°F22.3°C 63% 1.5 mph SE2.4 kmh SE 3.1 mph5.0 kmh 29.83 in1010.2 mb 0.00 in0.0 mm 0.00 in0.0 mm 0.00 in0.0 mm
09:25 PM 86.2°F30.1°C 72.1°F22.3°C 63% 1.8 mph SSW2.9 kmh SSW 3.1 mph5.0 kmh 29.83 in1010.2 mb 0.00 in0.0 mm 0.00 in0.0 mm 0.00 in0.0 mm
09:30 PM 86.2°F30.1°C 72.1°F22.3°C 63% Calm Calm 2.9 mph4.7 kmh 29.84 in1010.5 mb 0.00 in0.0 mm 0.00 in0.0 mm 0.00 in0.0 mm
09:35 PM 86.2°F30.1°C 72.1°F22.3°C 63% 1.5 mph S2.4 kmh S 2.5 mph4.0 kmh 29.84 in1010.5 mb 0.00 in0.0 mm 0.00 in0.0 mm 0.00 in0.0 mm
09:40 PM 86.2°F30.1°C 72.6°F22.6°C 64% Calm Calm 2.5 mph4.0 kmh 29.83 in1010.2 mb 0.00 in0.0 mm 0.00 in0.0 mm 0.00 in0.0 mm
09:46 PM 85.8°F29.9°C 72.2°F22.3°C 64% 1.8 mph SW2.9 kmh SW 3.1 mph5.0 kmh 29.84 in1010.5 mb 0.00 in0.0 mm 0.00 in0.0 mm 0.00 in0.0 mm
09:51 PM 85.6°F29.8°C 72.1°F22.3°C 64% 2.0 mph WSW3.2 kmh WSW 3.1 mph5.0 kmh 29.84 in1010.5 mb 0.00 in0.0 mm 0.00 in0.0 mm 0.00 in0.0 mm
09:56 PM 85.6°F29.8°C 72.1°F22.3°C 64% 1.9 mph SSW3.1 kmh SSW 2.2 mph3.5 kmh 29.84 in1010.5 mb 0.00 in0.0 mm 0.00 in0.0 mm 0.00 in0.0 mm
10:01 PM 85.6°F29.8°C 72.1°F22.3°C 64% 1.7 mph WSW2.7 kmh WSW 2.5 mph4.0 kmh 29.84 in1010.5 mb 0.00 in0.0 mm 0.00 in0.0 mm 0.00 in0.0 mm
10:06 PM 85.5°F29.7°C 71.9°F22.2°C 64% 1.9 mph SW3.1 kmh SW 2.5 mph4.0 kmh 29.84 in1010.5 mb 0.00 in0.0 mm 0.00 in0.0 mm 0.00 in0.0 mm
10:11 PM 85.3°F29.6°C 72.2°F22.3°C 65% 1.8 mph S2.9 kmh S 2.2 mph3.5 kmh 29.84 in1010.5 mb 0.00 in0.0 mm 0.00 in0.0 mm 0.00 in0.0 mm
10:16 PM 85.3°F29.6°C 72.2°F22.3°C 65% 1.8 mph S2.9 kmh S 2.0 mph3.2 kmh 29.85 in1010.8 mb 0.00 in0.0 mm 0.00 in0.0 mm 0.00 in0.0 mm
10:21 PM 85.3°F29.6°C 72.2°F22.3°C 65% 1.9 mph SW3.1 kmh SW 4.5 mph7.2 kmh 29.85 in1010.8 mb 0.00 in0.0 mm 0.00 in0.0 mm 0.00 in0.0 mm
10:26 PM 85.3°F29.6°C 72.2°F22.3°C 65% 2.8 mph SW4.5 kmh SW 4.5 mph7.2 kmh 29.85 in1010.8 mb 0.00 in0.0 mm 0.00 in0.0 mm 0.00 in0.0 mm
10:31 PM 85.3°F29.6°C 71.7°F22.1°C 64% 1.8 mph WSW2.9 kmh WSW 5.4 mph8.7 kmh 29.85 in1010.8 mb 0.00 in0.0 mm 0.00 in0.0 mm 0.00 in0.0 mm
10:36 PM 85.1°F29.5°C 72.0°F22.2°C 65% 1.6 mph SW2.6 kmh SW 5.4 mph8.7 kmh 29.85 in1010.8 mb 0.00 in0.0 mm 0.00 in0.0 mm 0.00 in0.0 mm
10:41 PM 84.9°F29.4°C 71.8°F22.1°C 65% 3.4 mph SSW5.5 kmh SSW 4.5 mph7.2 kmh 29.85 in1010.8 mb 0.00 in0.0 mm 0.00 in0.0 mm 0.00 in0.0 mm
10:46 PM 84.9°F29.4°C 71.8°F22.1°C 65% Calm Calm 4.5 mph7.2 kmh 29.85 in1010.8 mb 0.00 in0.0 mm 0.00 in0.0 mm 0.00 in0.0 mm
10:51 PM 85.1°F29.5°C 71.5°F21.9°C 64% Calm Calm -- 29.85 in1010.8 mb 0.00 in0.0 mm 0.00 in0.0 mm 0.00 in0.0 mm
10:56 PM 84.9°F29.4°C 71.8°F22.1°C 65% 1.4 mph WSW2.3 kmh WSW 2.0 mph3.2 kmh 29.85 in1010.8 mb 0.00 in0.0 mm 0.00 in0.0 mm 0.00 in0.0 mm
11:01 PM 84.7°F29.3°C 71.7°F22.1°C 65% 1.9 mph SW3.1 kmh SW 2.2 mph3.5 kmh 29.85 in1010.8 mb 0.00 in0.0 mm 0.00 in0.0 mm 0.00 in0.0 mm
11:06 PM 84.7°F29.3°C 71.7°F22.1°C 65% 1.8 mph WSW2.9 kmh WSW 3.1 mph5.0 kmh 29.85 in1010.8 mb 0.00 in0.0 mm 0.00 in0.0 mm 0.00 in0.0 mm
11:11 PM 84.6°F29.2°C 71.5°F21.9°C 65% 2.0 mph WSW3.2 kmh WSW 3.1 mph5.0 kmh 29.85 in1010.8 mb 0.00 in0.0 mm 0.00 in0.0 mm 0.00 in0.0 mm
11:16 PM 84.4°F29.1°C 71.3°F21.8°C 65% 1.7 mph SW2.7 kmh SW 2.9 mph4.7 kmh 29.85 in1010.8 mb 0.00 in0.0 mm 0.00 in0.0 mm 0.00 in0.0 mm
11:21 PM 84.4°F29.1°C 71.3°F21.8°C 65% 2.3 mph SW3.7 kmh SW 3.1 mph5.0 kmh 29.85 in1010.8 mb 0.00 in0.0 mm 0.00 in0.0 mm 0.00 in0.0 mm
11:26 PM 84.2°F29.0°C 71.2°F21.8°C 65% 1.9 mph SSW3.1 kmh SSW 3.1 mph5.0 kmh 29.85 in1010.8 mb 0.00 in0.0 mm 0.00 in0.0 mm 0.00 in0.0 mm
11:31 PM 84.4°F29.1°C 71.3°F21.8°C 65% 3.7 mph SW6.0 kmh SW 6.3 mph10.1 kmh 29.85 in1010.8 mb 0.00 in0.0 mm 0.00 in0.0 mm 0.00 in0.0 mm
11:36 PM 84.6°F29.2°C 71.5°F21.9°C 65% 3.0 mph WSW4.8 kmh WSW 6.3 mph10.1 kmh 29.85 in1010.8 mb 0.00 in0.0 mm 0.00 in0.0 mm 0.00 in0.0 mm
11:42 PM 84.6°F29.2°C 71.0°F21.7°C 64% 3.1 mph SW5.0 kmh SW 6.3 mph10.1 kmh 29.85 in1010.8 mb 0.00 in0.0 mm 0.00 in0.0 mm 0.00 in0.0 mm
11:47 PM 84.6°F29.2°C 71.0°F21.7°C 64% 2.2 mph SW3.5 kmh SW 5.1 mph8.2 kmh 29.85 in1010.8 mb 0.00 in0.0 mm 0.00 in0.0 mm 0.00 in0.0 mm
11:52 PM 84.6°F29.2°C 71.0°F21.7°C 64% 2.4 mph SW3.9 kmh SW 5.1 mph8.2 kmh 29.85 in1010.8 mb 0.00 in0.0 mm 0.00 in0.0 mm 0.00 in0.0 mm
11:57 PM 84.4°F29.1°C 70.9°F21.6°C 64% 2.1 mph SW3.4 kmh SW 4.7 mph7.6 kmh 29.85 in1010.8 mb 0.00 in0.0 mm 0.00 in0.0 mm 0.00 in0.0 mm